Terminal Aerodrome Forecast
Issued by NWS

Current Version | Previous Version | Graphics & Text | Print | Product List | Glossary On
Versions: 1 2 3 4 5 6 7 8 9 10 11 12 13 14 15 16 17 18
000
FTUS41 KPBZ 191126
TAFMGW
TAF
KMGW 191126Z 1912/2012 06007KT P6SM BKN100 WS020/14030KT
     FM191500 12012G22KT P6SM BKN150
     FM200200 13012G22KT 5SM -SHRA OVC035
     FM200800 14011KT P6SM BKN025=

USA.gov is the U.S. government's official web portal to all federal, state and local government web resources and services.